Tiempo atmosférico en la estación meteorológica de Agaete, Las Palmas (5 m.)

Fecha
DESCASC
Temp. máxima en grados centígrados (hora)
DESCASC
Temp. mínima en grados centígrados (hora)
DESCASC
Temp. media en grados centígrados
DESCASC
Racha de viento máxima en m/sg (hora)
DESCASC
Velocidad máxima media en intervalos de 10 minutos(hora)
DESCASC
Precipitaciones diarias en mm
DESCASC
Precipitaciones de 00:00 a 06:00 en mm
DESCASC
Precipitaciones de 06:00 a 12:00 en mm
DESCASC
Precipitaciones de 12:00 a 18:00 en mm
DESCASC
Precipitaciones de 18:00 a 24:00 en mm
DESCASC
10-12-2017 22.9 (15:20) 16.9 (08:10) 19.9 13.06 (01:30) 8.61 (00:50) 0 0 0 0 0
09-12-2017 23.2 (11:10) 16.6 (08:00) 19.9 10.83 (02:20) 5.83 (02:30) 0 0 0 0 0
08-12-2017 22.3 (16:40) 16.1 (07:40) 19.2 8.33 (04:10) 4.72 (07:30) 0 0 0 0 0
07-12-2017 21.7 (10:20) 16.2 (00:00) 19 9.44 (21:00) 5.28 (06:20) 0 0 0 0 0
06-12-2017 22.3 (15:40) 17.4 (00:00) 19.8 11.11 (10:10) 5.56 (10:40) 0 0 0 0 0
05-12-2017 24.5 (10:30) 18.8 (00:00) 21.6 8.89 (00:20) 5 (22:50) 0 0 0 0 0
04-12-2017 23.2 (23:59) 18.3 (00:00) 20.8 11.94 (07:40) 7.22 (07:30) 0 0 0 0 0
03-12-2017 22.4 (13:50) 19.1 (00:00) 20.8 15.56 (17:10) 8.33 (11:20) 0 0 0 0 0
02-12-2017 23.5 (17:00) 19.4 (00:00) 21.4 11.11 (21:40) 5.28 (23:30) 0 0 0 0 0
01-12-2017 24.3 (10:10) 19.5 (00:00) 21.9 3.33 (07:40) 2.22 (07:30) 0 0 0 0 0
30-11-2017 24.7 (10:50) 20.5 (00:00) 22.6 10.28 (03:10) 7.5 (04:20) 0 0 0 0 0
29-11-2017 24.4 (13:00) 21.3 (00:00) 22.8 9.44 (19:10) 6.67 (19:40) 0 0 0 0 0
28-11-2017 24.2 (12:20) 20.5 (00:00) 22.4 5 (15:30) 3.61 (15:30) 0 0 0 0 0
27-11-2017 26.3 (10:00) 20.7 (00:00) 23.5 6.94 (15:10) 4.72 (15:10) 0 0 0 0 0
26-11-2017 26.9 (13:00) 21.5 (00:00) 24.2 6.11 (12:10) 4.44 (11:30) 0 0 0 0 0
25-11-2017 26.8 (12:00) 21.8 (00:00) 24.3 11.67 (08:20) 6.39 (09:00) 0 0 0 0 0
24-11-2017 24.2 (12:30) 19.9 (00:00) 22.1 5.83 (21:20) 3.61 (01:40) 0 0 0 0 0
23-11-2017 24.7 (16:40) 18.6 (00:00) 21.7 4.72 (18:40) 2.78 (22:00) 0 0 0 0 0
22-11-2017 25.6 (10:00) 19.8 (00:00) 22.7 6.39 (16:50) 5.28 (16:50) 0 0 0 0 0
21-11-2017 25.5 (13:10) 20 (00:00) 22.8 7.22 (15:10) 5.28 (15:00) 0 0 0 0 0
20-11-2017 26.3 (14:30) 19.3 (00:00) 22.8 5.83 (05:10) 3.89 (16:00) 0 0 0 0 0
19-11-2017 23.1 (11:00) 18.7 (00:00) 20.9 13.61 (19:20) 8.61 (19:30) 0 0 0 0 0
18-11-2017 23.3 (12:50) 18.8 (00:00) 21 8.33 (19:50) 5.83 (15:00) 0 0 0 0 0
17-11-2017 23.4 (13:20) 17.7 (00:00) 20.6 20.56 (21:10) 8.33 (22:20) 0 0 0 0 0
16-11-2017 24 (14:50) 17.7 (00:00) 20.9 8.89 (12:50) 5 (15:20) 0 0 0 0 0
15-11-2017 23 (14:20) 18.8 (00:00) 20.9 10.83 (11:40) 6.94 (15:00) 0 0 0 0 0

Gráficas

Temp. máximas Temp. mínimas Temp. medias Precipitaciones Rachas de viento máximas Velocidades máximas media en intervalos de 10 minutos

Datos horarios

Fecha y hora oficial Temperatura (ºC) Velocidad del viento (km/h) Dirección del viento Racha (km/h) Dirección de racha Precipitación (mm) Presión (hPa) Tendencia (hPa) Humedad (%)
2017-12-14 23:00:00 18.1 14 Nordeste 29 Nordeste 0 -- -- 58
2017-12-14 22:00:00 18.1 17 Nordeste 31 Nordeste 0 -- -- 61
2017-12-14 21:00:00 18.4 16 Nordeste 26 Nordeste 0 -- -- 63
2017-12-14 20:00:00 18.5 14 Nordeste 30 Nordeste 0 -- -- 65
2017-12-14 19:00:00 18.7 16 Nordeste 31 Nordeste 0 -- -- 61
2017-12-14 18:00:00 19.1 19 Nordeste 30 Nordeste 0 -- -- 63
2017-12-14 17:00:00 19.8 20 Nordeste 35 Nordeste 0 -- -- 63
2017-12-14 16:00:00 20.3 20 Nordeste 36 Nordeste 0 -- -- 59
2017-12-14 15:00:00 20.5 19 Nordeste 36 Nordeste 0 -- -- 60
2017-12-14 14:00:00 20.5 18 Nordeste 36 Nordeste 0 -- -- 57
2017-12-14 13:00:00 20.4 20 Nordeste 42 Nordeste 0 -- -- 58
2017-12-14 12:00:00 19.8 25 Nordeste 40 Nordeste 0 -- -- 62
2017-12-14 11:00:00 19.7 22 Nordeste 40 Nordeste 0 -- -- 62
2017-12-14 10:00:00 19 21 Nordeste 37 Este 0 -- -- 65
2017-12-14 09:00:00 18.2 18 Nordeste 32 Nordeste 0 -- -- 68
2017-12-14 08:00:00 17.6 15 Nordeste 27 Nordeste 0 -- -- 70
2017-12-14 07:00:00 17.4 15 Nordeste 28 Nordeste 0 -- -- 70
2017-12-14 06:00:00 17.3 14 Nordeste 25 Nordeste 0 -- -- 71
2017-12-14 05:00:00 17.4 14 Nordeste 23 Nordeste 0 -- -- 71
2017-12-14 04:00:00 17.6 12 Nordeste 29 Nordeste 0 -- -- 69
2017-12-14 03:00:00 18 19 Nordeste 29 Nordeste 0 -- -- 66
2017-12-14 02:00:00 17.8 15 Nordeste 29 Nordeste 0 -- -- 66
2017-12-14 01:00:00 17.9 12 Nordeste 27 Nordeste 0 -- -- 65
2017-12-14 00:00:00 17.9 16 Nordeste 32 Nordeste 0 -- -- 65
2017-12-13 23:00:00 18 19 Nordeste 44 Nordeste 0 -- -- 63
2017-12-13 22:00:00 18.1 21 Nordeste 45 Nordeste 0 -- -- 61
2017-12-13 21:00:00 18.1 21 Nordeste 45 Nordeste 0 -- -- 60
2017-12-13 20:00:00 18.2 27 Nordeste 46 Nordeste 0 -- -- 58
2017-12-13 19:00:00 18.2 26 Nordeste 45 Este 0 -- -- 56
2017-12-13 18:00:00 18.4 27 Nordeste 51 Nordeste 0 -- -- 54
2017-12-13 17:00:00 19.2 27 Nordeste 54 Nordeste 0 -- -- 52
2017-12-13 16:00:00 18.7 27 Nordeste 51 Nordeste 0 -- -- 53
2017-12-13 15:00:00 18.6 27 Nordeste 51 Nordeste 0 -- -- 54
2017-12-13 14:00:00 18.9 26 Nordeste 53 Nordeste 0 -- -- 56
2017-12-13 13:00:00 19.2 27 Nordeste 51 Nordeste 0 -- -- 53
2017-12-13 12:00:00 19.1 25 Nordeste 50 Nordeste 0 -- -- 55
2017-12-13 11:00:00 18.6 23 Nordeste 48 Nordeste 0 -- -- 57
2017-12-13 10:00:00 18.3 24 Nordeste 58 Nordeste 0 -- -- 51
2017-12-13 09:00:00 18.3 27 Nordeste 54 Nordeste 0 -- -- 53
2017-12-13 08:00:00 18 28 Nordeste 66 Nordeste 0 -- -- 56
2017-12-13 07:00:00 18 27 Nordeste 63 Norte 0 -- -- 64
2017-12-13 06:00:00 18.2 30 Nordeste 53 Nordeste 0 -- -- 64
2017-12-13 05:00:00 16.8 33 Nordeste 56 Nordeste 0.2 -- -- 71
2017-12-13 04:00:00 17.7 25 Nordeste 49 Nordeste 0 -- -- 63
2017-12-13 03:00:00 17.4 27 Nordeste 56 Nordeste 0 -- -- 68
2017-12-13 02:00:00 17.5 26 Nordeste 51 Norte 0 -- -- 64
2017-12-13 01:00:00 17.5 21 Nordeste 48 Nordeste 0 -- -- 65
2017-12-13 00:00:00 18.3 24 Nordeste 43 Nordeste 0 -- -- 57
2017-12-12 23:00:00 17.5 24 Nordeste 42 Nordeste 0 -- -- 60
2017-12-12 22:00:00 18.3 23 Nordeste 45 Nordeste 0 -- -- 61
2017-12-12 21:00:00 16.3 13 Nordeste 51 Norte 0.2 -- -- 72
2017-12-12 20:00:00 17.5 19 Nordeste 41 Nordeste 0 -- -- 69
2017-12-12 19:00:00 17.7 25 Nordeste 47 Nordeste 0 -- -- 66
2017-12-12 18:00:00 18.9 25 Nordeste 44 Nordeste 0 -- -- 56
2017-12-12 17:00:00 19.4 24 Nordeste 42 Nordeste 0 -- -- 54
2017-12-12 16:00:00 18.1 19 Nordeste 57 Norte 0 -- -- 66
2017-12-12 15:00:00 19.5 20 Nordeste 46 Norte 0 -- -- 64
2017-12-12 14:00:00 17.8 19 Nordeste 58 Norte 1 -- -- 71
2017-12-12 13:00:00 19.3 19 Nordeste 39 Nordeste 0 -- -- 65
2017-12-12 12:00:00 18.6 23 Norte 44 Nordeste 0.2 -- -- 68
2017-12-12 11:00:00 19.4 21 Nordeste 42 Norte 0.2 -- -- 62
2017-12-12 10:00:00 19.4 19 Nordeste 39 Nordeste 0 -- -- 56
2017-12-12 09:00:00 18.4 21 Nordeste 37 Nordeste 0 -- -- 58
2017-12-12 08:00:00 18 20 Nordeste 46 Nordeste 0 -- -- 57
2017-12-12 07:00:00 18 22 Nordeste 48 Nordeste 0.2 -- -- 62
2017-12-12 06:00:00 18.1 22 Nordeste 44 Nordeste 0 -- -- 60
2017-12-12 05:00:00 18.2 25 Nordeste 44 Nordeste 0 -- -- 56
2017-12-12 04:00:00 17.9 21 Nordeste 42 Nordeste 0 -- -- 64
2017-12-12 03:00:00 18.1 21 Nordeste 47 Nordeste 0 -- -- 65
2017-12-12 02:00:00 18.1 21 Nordeste 51 Este 0 -- -- 67
2017-12-12 01:00:00 16.4 12 Este 48 Nordeste 0 -- -- 78
2017-12-12 00:00:00 17.6 14 Nordeste 41 Nordeste 0.4 -- -- 82
2017-12-11 23:00:00 17.3 16 Este 51 Nordeste 0.6 -- -- 85
2017-12-11 22:00:00 17 17 Nordeste 40 Norte 3.4 -- -- 92
2017-12-11 21:00:00 17.8 26 Norte 43 Norte 2.8 -- -- 92
2017-12-11 20:00:00 17.5 26 Norte 57 Norte 1.6 -- -- 90
2017-12-11 19:00:00 21.9 15 Sudeste 35 Sudeste 0 -- -- 56
2017-12-11 18:00:00 21.8 9 Nordeste 19 Noroeste 0 -- -- 55
2017-12-11 17:00:00 22.2 7 Norte 19 Nordeste 0 -- -- 52
2017-12-11 16:00:00 22.7 8 Nordeste 20 Sudeste 0 -- -- 50
2017-12-11 15:00:00 23.1 4 Norte 21 Oeste 0 -- -- 57
2017-12-11 14:00:00 22.1 14 Oeste 19 Oeste 0 -- -- 59
2017-12-11 13:00:00 23 9 Sur 19 Sudoeste 0 -- -- 48
2017-12-11 12:00:00 22.7 11 Sur 17 Sur 0 -- -- 54
2017-12-11 11:00:00 21.4 11 Sur 18 Sur 0 -- -- 59
2017-12-11 10:00:00 20.7 5 Oeste 9 Oeste 0 -- -- 70
2017-12-11 09:00:00 19.6 5 Nordeste 13 Este 0 -- -- 61
2017-12-11 08:00:00 18.6 7 Este 13 Este 0 -- -- 63
2017-12-11 07:00:00 19.4 3 Este 25 Sudeste 0 -- -- 65
2017-12-11 06:00:00 19.3 8 Este 17 Este 0 -- -- 67
2017-12-11 05:00:00 18.9 10 Este 17 Este 0 -- -- 63
2017-12-11 04:00:00 18.3 11 Este 18 Este 0 -- -- 62
2017-12-11 03:00:00 18.3 11 Este 15 Este 0 -- -- 59
2017-12-11 02:00:00 18.6 7 Este 16 Este 0 -- -- 62
2017-12-11 01:00:00 18.3 6 Este 19 Este 0 -- -- 69
2017-12-11 00:00:00 19.2 11 Este 21 Sudeste 0 -- -- 59
2017-12-10 23:00:00 18.9 10 Nordeste 25 Nordeste 0 -- -- 69
2017-12-10 22:00:00 19.7 13 Nordeste 26 Nordeste 0 -- -- 64
2017-12-10 21:00:00 19.7 8 Nordeste 22 Este 0 -- -- 61
2017-12-10 20:00:00 19.6 9 Este 24 Este 0 -- -- 62
2017-12-10 19:00:00 19.4 16 Nordeste 30 Nordeste 0 -- -- 66
2017-12-10 18:00:00 20.2 18 Nordeste 36 Nordeste 0 -- -- 59
2017-12-10 17:00:00 20.7 20 Nordeste 36 Nordeste 0 -- -- 62
2017-12-10 16:00:00 22.3 8 Sudeste 23 Nordeste 0 -- -- 60
2017-12-10 15:00:00 22.6 7 Sur 17 Noroeste 0 -- -- 55
2017-12-10 14:00:00 21.6 7 Sudeste 27 Nordeste 0 -- -- 55
2017-12-10 13:00:00 21.7 8 Sur 12 Sur 0 -- -- 48
2017-12-10 12:00:00 21.9 10 Sur 13 Sudeste 0 -- -- 40
2017-12-10 11:00:00 22.4 6 Sur 11 Sur 0 -- -- 41
2017-12-10 10:00:00 20.6 12 Sur 25 Sur 0 -- -- 42
2017-12-10 09:00:00 18.7 9 Este 18 Este 0 -- -- 30
2017-12-10 08:00:00 17.1 8 Este 13 Este 0 -- -- 37
2017-12-10 07:00:00 17.8 5 Sudeste 13 Este 0 -- -- 51
2017-12-10 06:00:00 18.7 8 Sur 30 Este 0 -- -- 48
2017-12-10 05:00:00 19.1 21 Nordeste 39 Nordeste 0 -- -- 41
2017-12-10 04:00:00 18.6 24 Nordeste 44 Nordeste 0 -- -- 61
2017-12-10 03:00:00 18.4 24 Nordeste 46 Nordeste 0 -- -- 64
2017-12-10 02:00:00 18.5 29 Nordeste 47 Nordeste 0 -- -- 66
2017-12-10 01:00:00 18.2 30 Nordeste 46 Nordeste 0 -- -- 64
2017-12-10 00:00:00 18.2 19 Nordeste 38 Nordeste 0 -- -- 65
2017-12-09 23:00:00 18.4 21 Nordeste 34 Nordeste 0 -- -- 59
2017-12-09 22:00:00 18.7 13 Este 35 Este 0 -- -- 57
2017-12-09 21:00:00 18.3 17 Nordeste 30 Nordeste 0 -- -- 60
2017-12-09 20:00:00 18.3 15 Nordeste 38 Nordeste 0 -- -- 60
2017-12-09 19:00:00 18.7 15 Nordeste 34 Nordeste 0 -- -- 56
2017-12-09 18:00:00 19.5 14 Nordeste 26 Nordeste 0 -- -- 55
2017-12-09 17:00:00 22 4 Oeste 8 Sudoeste 0 -- -- 51
2017-12-09 16:00:00 20.9 5 Oeste 13 Sudoeste 0 -- -- 53
2017-12-09 15:00:00 21.1 9 Sudoeste 14 Sudoeste 0 -- -- 53
2017-12-09 14:00:00 21.2 6 Sudoeste 8 Oeste 0 -- -- 51
2017-12-09 13:00:00 20.9 6 Oeste 11 Oeste 0 -- -- 49
2017-12-09 12:00:00 21 4 Oeste 8 Noroeste 0 -- -- 43
2017-12-09 11:00:00 22.4 0 Calma 5 Sudeste 0 -- -- 33
2017-12-09 10:00:00 22.1 2 Sudeste 17 Este 0 -- -- 33
2017-12-09 09:00:00 18.4 10 Este 25 Sudeste 0 -- -- 29
2017-12-09 08:00:00 16.6 18 Este 24 Este 0 -- -- 26
2017-12-09 07:00:00 17.3 13 Este 19 Este 0 -- -- 31
2017-12-09 06:00:00 17.5 13 Este 22 Sudeste 0 -- -- 41
2017-12-09 05:00:00 17.9 9 Sudeste 26 Nordeste 0 -- -- 40
2017-12-09 04:00:00 17.6 16 Nordeste 29 Nordeste 0 -- -- 53
2017-12-09 03:00:00 18.2 11 Este 39 Nordeste 0 -- -- 44
2017-12-09 02:00:00 18 20 Nordeste 39 Nordeste 0 -- -- 50
2017-12-09 01:00:00 17.3 10 Este 17 Este 0 -- -- 30
2017-12-09 00:00:00 17.2 9 Este 20 Este 0 -- -- 34
2017-12-08 23:00:00 17.5 10 Este 20 Nordeste 0 -- -- 32
2017-12-08 22:00:00 17.8 10 Este 18 Este 0 -- -- 36
2017-12-08 21:00:00 17.8 12 Este 23 Este 0 -- -- 35
2017-12-08 20:00:00 18 10 Este 22 Nordeste 0 -- -- 33
2017-12-08 19:00:00 18.8 11 Este 27 Este 0 -- -- 33
2017-12-08 18:00:00 19.9 13 Nordeste 22 Nordeste 0 -- -- 33
2017-12-08 17:00:00 21.8 5 Sudoeste 11 Sudoeste 0 -- -- 45
2017-12-08 16:00:00 22.2 7 Sudoeste 15 Sudoeste 0 -- -- 47
2017-12-08 15:00:00 21.5 11 Sudoeste 15 Sudoeste 0 -- -- 49
2017-12-08 14:00:00 21 13 Sudoeste 17 Sudoeste 0 -- -- 51
2017-12-08 13:00:00 20.9 10 Sudoeste 16 Sudoeste 0 -- -- 48
2017-12-08 12:00:00 20.6 12 Sudoeste 17 Sur 0 -- -- 49
2017-12-08 11:00:00 21.3 8 Sur 15 Sur 0 -- -- 44
2017-12-08 10:00:00 20.8 6 Este 22 Este 0 -- -- 34
2017-12-08 09:00:00 17.6 15 Este 28 Este 0 -- -- 32
2017-12-08 08:00:00 16.2 17 Este 22 Este 0 -- -- 28
2017-12-08 07:00:00 16.3 17 Este 22 Este 0 -- -- 30
2017-12-08 06:00:00 16.7 14 Este 22 Este 0 -- -- 27
2017-12-08 05:00:00 16.4 16 Este 30 Este 0 -- -- 31
2017-12-08 04:00:00 16.4 17 Este 22 Este 0 -- -- 34
2017-12-08 03:00:00 16.5 15 Este 22 Este 0 -- -- 39
2017-12-08 02:00:00 16.6 15 Este 23 Este 0 -- -- 45
2017-12-08 01:00:00 16.6 15 Este 22 Este 0 -- -- 49
2017-12-08 00:00:00 16.7 15 Este 24 Este 0 -- -- 49
2017-12-07 23:00:00 17.3 13 Este 17 Este 0 -- -- 39
2017-12-07 22:00:00 18.1 6 Este 22 Este 0 -- -- 32
2017-12-07 21:00:00 17.8 17 Nordeste 34 Este 0 -- -- 34
2017-12-07 20:00:00 18 17 Nordeste 33 Nordeste 0 -- -- 27
2017-12-07 19:00:00 18.3 12 Nordeste 26 Nordeste 0 -- -- 26
2017-12-07 18:00:00 19.8 10 Nordeste 19 Este 0 -- -- 27
2017-12-07 17:00:00 21 5 Oeste 11 Sudoeste 0 -- -- 48
2017-12-07 16:00:00 21.5 5 Oeste 13 Sudoeste 0 -- -- 45
2017-12-07 15:00:00 20.8 11 Oeste 15 Sudoeste 0 -- -- 50
2017-12-07 14:00:00 20.9 10 Sudoeste 16 Sudoeste 0 -- -- 50
2017-12-07 13:00:00 21.1 8 Sudoeste 12 Sudoeste 0 -- -- 47
2017-12-07 12:00:00 20.8 8 Sudoeste 13 Sudoeste 0 -- -- 48
2017-12-07 11:00:00 21.3 6 Sur 13 Sur 0 -- -- 44
2017-12-07 10:00:00 20.6 5 Este 20 Este 0 -- -- 38
2017-12-07 09:00:00 17.8 15 Este 22 Este 0 -- -- 41
2017-12-07 08:00:00 16.7 14 Este 29 Este 0 -- -- 42
2017-12-07 07:00:00 16.5 17 Este 26 Este 0 -- -- 39
2017-12-07 06:00:00 16.6 17 Este 23 Este 0 -- -- 40
2017-12-07 05:00:00 16.8 14 Este 23 Este 0 -- -- 35
2017-12-07 04:00:00 17.1 13 Este 25 Nordeste 0 -- -- 31
2017-12-07 03:00:00 17.6 8 Este 25 Este 0 -- -- 43
2017-12-07 02:00:00 17.6 13 Este 24 Este 0 -- -- 31
2017-12-07 01:00:00 17.6 10 Este 23 Sudeste 0 -- -- 30
2017-12-07 00:00:00 17.7 11 Este 24 Este 0 -- -- 31
2017-12-06 23:00:00 18.1 9 Este 25 Nordeste 0 -- -- 30
2017-12-06 22:00:00 19.1 12 Este 31 Nordeste 0 -- -- 35
2017-12-06 21:00:00 19.4 10 Este 28 Nordeste 0 -- -- 26
2017-12-06 20:00:00 19.4 10 Este 26 Nordeste 0 -- -- 38
2017-12-06 19:00:00 19.3 5 Sudeste 14 Sur 0 -- -- 47
2017-12-06 18:00:00 20.7 6 Sur 11 Sur 0 -- -- 46
2017-12-06 17:00:00 21.7 8 Sudoeste 15 Sur 0 -- -- 45
2017-12-06 16:00:00 22.1 9 Sudoeste 14 Sudoeste 0 -- -- 45
2017-12-06 15:00:00 21.9 10 Sudoeste 15 Sudoeste 0 -- -- 43
2017-12-06 14:00:00 22 8 Sur 27 Sudeste 0 -- -- 39
2017-12-06 13:00:00 21.3 15 Sudeste 34 Este 0 -- -- 40
2017-12-06 12:00:00 21.3 11 Sudeste 32 Este 0 -- -- 36
2017-12-06 11:00:00 20.7 15 Este 40 Este 0 -- -- 33
2017-12-06 10:00:00 20.1 17 Este 34 Nordeste 0 -- -- 38
2017-12-06 09:00:00 19 17 Nordeste 33 Nordeste 0 -- -- 39
2017-12-06 08:00:00 18.3 15 Este 29 Sudeste 0 -- -- 39
2017-12-06 07:00:00 17.9 13 Este 28 Este 0 -- -- 38
2017-12-06 06:00:00 18.4 12 Este 26 Este 0 -- -- 32
2017-12-06 05:00:00 18.2 13 Este 22 Este 0 -- -- 37
2017-12-06 04:00:00 19.1 12 Este 28 Sudeste 0 -- -- 37
2017-12-06 03:00:00 19.3 13 Sudeste 26 Sudeste 0 -- -- 38
2017-12-06 02:00:00 18.7 14 Este 20 Este 0 -- -- 27
2017-12-06 01:00:00 19.3 10 Este 23 Este 0 -- -- 29
2017-12-06 00:00:00 19.1 12 Este 27 Nordeste 0 -- -- 31
2017-12-05 23:00:00 19 18 Nordeste 27 Nordeste 0 -- -- 28
2017-12-05 22:00:00 19.2 12 Este 21 Este 0 -- -- 32
2017-12-05 21:00:00 18.8 9 Este 18 Este 0 -- -- 44
2017-12-05 20:00:00 19.6 10 Este 16 Este 0 -- -- 52
2017-12-05 19:00:00 20.7 5 Sudoeste 11 Sudoeste 0 -- -- 55
2017-12-05 18:00:00 21.4 6 Sudoeste 18 Sudoeste 0 -- -- 56
2017-12-05 17:00:00 22.3 15 Sudoeste 22 Sudoeste 0 -- -- 56
2017-12-05 16:00:00 23.5 14 Sudoeste 18 Sudoeste 0 -- -- 53
2017-12-05 15:00:00 23.7 9 Sudoeste 14 Sur 0 -- -- 51
2017-12-05 14:00:00 23.3 8 Sudoeste 14 Sudoeste 0 -- -- 57
2017-12-05 13:00:00 24 8 Sur 12 Sur 0 -- -- 54
2017-12-05 12:00:00 23.7 6 Sur 9 Sur 0 -- -- 49
2017-12-05 11:00:00 23.9 6 Sudoeste 9 Sur 0 -- -- 46
2017-12-05 10:00:00 24 8 Sur 10 Sur 0 -- -- 36
2017-12-05 09:00:00 21.3 4 Este 16 Este 0 -- -- 38
2017-12-05 08:00:00 19.6 10 Este 18 Este 0 -- -- 41
2017-12-05 07:00:00 19.7 9 Este 18 Este 0 -- -- 39
2017-12-05 06:00:00 19.3 8 Este 11 Este 0 -- -- 42
2017-12-05 05:00:00 19.7 5 Este 10 Este 0 -- -- 41
2017-12-05 04:00:00 20.4 4 Sudeste 11 Sur 0 -- -- 45
2017-12-05 03:00:00 20.9 8 Sur 12 Sur 0 -- -- 44
2017-12-05 02:00:00 20.9 6 Sudeste 13 Sur 0 -- -- 43
2017-12-05 01:00:00 21.2 5 Sur 32 Este 0 -- -- 40
2017-12-05 00:00:00 23.2 13 Este 25 Nordeste 0 -- -- 24
2017-12-04 23:00:00 20.2 12 Este 30 Este 0 -- -- 38
2017-12-04 22:00:00 19.8 19 Nordeste 36 Este 0 -- -- 70
2017-12-04 21:00:00 20.1 17 Nordeste 36 Nordeste 0 -- -- 60
2017-12-04 20:00:00 20.5 9 Nordeste 28 Este 0 -- -- 50
2017-12-04 19:00:00 20.7 15 Nordeste 31 Nordeste 0 -- -- 62
2017-12-04 18:00:00 21 17 Nordeste 38 Nordeste 0 -- -- 71
2017-12-04 17:00:00 22 16 Nordeste 35 Norte 0 -- -- 67
2017-12-04 16:00:00 22.8 9 Este 28 Sudeste 0 -- -- 62
2017-12-04 15:00:00 22.5 7 Sudoeste 30 Este 0 -- -- 62
2017-12-04 14:00:00 22.7 11 Sudeste 37 Nordeste 0 -- -- 59
2017-12-04 13:00:00 22.3 15 Nordeste 37 Este 0 -- -- 57
2017-12-04 12:00:00 21.8 12 Nordeste 27 Este 0 -- -- 59
2017-12-04 11:00:00 20.6 11 Sudeste 32 Este 0 -- -- 61
2017-12-04 10:00:00 21.1 9 Nordeste 26 Sudeste 0 -- -- 57
2017-12-04 09:00:00 19.3 11 Sudeste 31 Nordeste 0 -- -- 56
2017-12-04 08:00:00 18.7 20 Nordeste 43 Nordeste 0 -- -- 62
2017-12-04 07:00:00 18.4 16 Nordeste 43 Sudeste 0 -- -- 62
2017-12-04 06:00:00 18.4 16 Nordeste 35 Nordeste 0 -- -- 61
2017-12-04 05:00:00 18.4 16 Nordeste 33 Nordeste 0 -- -- 61
2017-12-04 04:00:00 18.7 18 Nordeste 33 Nordeste 0 -- -- 60
2017-12-04 03:00:00 18.9 20 Nordeste 32 Nordeste 0 -- -- 65
2017-12-04 02:00:00 19 16 Nordeste 35 Nordeste 0 -- -- 62
2017-12-04 01:00:00 19.3 20 Nordeste 34 Nordeste 0 -- -- 64
2017-12-04 00:00:00 19.4 14 Nordeste 29 Este 0 -- -- 67
2017-12-03 23:00:00 19.6 13 Este 30 Nordeste 0 -- -- 64
2017-12-03 22:00:00 19.7 13 Nordeste 26 Nordeste 0 -- -- 64
2017-12-03 21:00:00 19.1 14 Nordeste 32 Nordeste 0 -- -- 63
2017-12-03 20:00:00 19.4 13 Nordeste 26 Este 0 -- -- 62
2017-12-03 19:00:00 19.7 17 Nordeste 34 Nordeste 0 -- -- 63
2017-12-03 18:00:00 20.5 19 Nordeste 56 Nordeste 0 -- -- 61
2017-12-03 17:00:00 21.2 26 Nordeste 45 Nordeste 0 -- -- 57
2017-12-03 16:00:00 21.7 27 Nordeste 50 Nordeste 0 -- -- 56
2017-12-03 15:00:00 21.9 25 Nordeste 44 Nordeste 0 -- -- 57
2017-12-03 14:00:00 22.3 19 Nordeste 34 Nordeste 0 -- -- 55
2017-12-03 13:00:00 22 22 Nordeste 41 Nordeste 0 -- -- 53
2017-12-03 12:00:00 21.3 27 Nordeste 47 Nordeste 0 -- -- 58
2017-12-03 11:00:00 21.2 23 Nordeste 41 Nordeste 0 -- -- 61
2017-12-03 10:00:00 21.4 18 Nordeste 38 Este 0 -- -- 57
2017-12-03 09:00:00 20 13 Nordeste 29 Nordeste 0 -- -- 62
2017-12-03 08:00:00 19.4 10 Nordeste 38 Este 0 -- -- 65
2017-12-03 07:00:00 19.1 15 Nordeste 32 Este 0 -- -- 71
2017-12-03 06:00:00 19.1 17 Nordeste 31 Este 0 -- -- 70
2017-12-03 05:00:00 19.1 15 Nordeste 30 Nordeste 0 -- -- 71
2017-12-03 04:00:00 19.4 13 Nordeste 24 Nordeste 0 -- -- 70
2017-12-03 03:00:00 19.4 5 Este 31 Nordeste 0 -- -- 72
2017-12-03 02:00:00 19.6 12 Este 33 Este 0 -- -- 71
2017-12-03 01:00:00 19.6 15 Nordeste 37 Nordeste 0 -- -- 72
2017-12-03 00:00:00 19.5 18 Nordeste 40 Este 0 -- -- 73
2017-12-02 23:00:00 19.4 17 Nordeste 31 Este 0 -- -- 74
2017-12-02 22:00:00 19.6 15 Nordeste 40 Nordeste 0 -- -- 75
2017-12-02 21:00:00 19.8 17 Nordeste 36 Nordeste 0 -- -- 75
2017-12-02 20:00:00 20.1 15 Nordeste 26 Nordeste 0 -- -- 76
2017-12-02 19:00:00 21.2 6 Sudoeste 13 Sudoeste 0 -- -- 81
2017-12-02 18:00:00 21.7 7 Sudoeste 11 Sudoeste 0 -- -- 76
2017-12-02 17:00:00 23.5 7 Sur 9 Sur 0 -- -- 68
2017-12-02 16:00:00 23 5 Sur 21 Nordeste 0 -- -- 71
2017-12-02 15:00:00 21.2 14 Nordeste 22 Nordeste 0 -- -- 77
2017-12-02 14:00:00 21.4 2 Sudeste 14 Sudoeste 0 -- -- 77
2017-12-02 13:00:00 21.5 9 Oeste 13 Oeste 0 -- -- 79
2017-12-02 12:00:00 21.3 10 Noroeste 14 Noroeste 0 -- -- 82
2017-12-02 11:00:00 21.2 8 Norte 11 Norte 0 -- -- 84
2017-12-02 10:00:00 20.9 4 Norte 11 Nordeste 0 -- -- 83
2017-12-02 09:00:00 20.7 5 Este 8 Este 0 -- -- 81
2017-12-02 08:00:00 20.8 4 Sur 6 Sudeste 0 -- -- 83
2017-12-02 07:00:00 20.1 3 Este 7 Este 0 -- -- 81
2017-12-02 06:00:00 19.4 7 Este 11 Este 0 -- -- 76
2017-12-02 05:00:00 19.8 6 Este 11 Este 0 -- -- 77
2017-12-02 04:00:00 19.9 4 Este 13 Este 0 -- -- 81
2017-12-02 03:00:00 19.8 4 Este 10 Nordeste 0 -- -- 82
2017-12-02 02:00:00 19.8 4 Este 10 Este 0 -- -- 82
2017-12-02 01:00:00 20.3 4 Sudeste 8 Sur 0 -- -- 84
2017-12-02 00:00:00 19.9 2 Este 7 Este 0 -- -- 82
2017-12-01 23:00:00 20.4 4 Sudeste 8 Este 0 -- -- 82
2017-12-01 22:00:00 21 4 Sur 10 Sur 0 -- -- 84
2017-12-01 21:00:00 21.2 6 Sur 9 Sur 0 -- -- 83
2017-12-01 20:00:00 21.4 4 Sudeste 11 Nordeste 0 -- -- 81
2017-12-01 19:00:00 21.6 5 Norte 8 Norte 0 -- -- 81
2017-12-01 18:00:00 22.2 4 Noroeste 6 Norte 0 -- -- 79
2017-12-01 17:00:00 22.3 5 Noroeste 9 Noroeste 0 -- -- 79
2017-12-01 16:00:00 23.7 6 Oeste 8 Oeste 0 -- -- 73
2017-12-01 15:00:00 23.6 4 Oeste 8 Oeste 0 -- -- 73
2017-12-01 14:00:00 23.4 4 Oeste 8 Sudoeste 0 -- -- 76
2017-12-01 13:00:00 23.3 5 Sudoeste 9 Sudoeste 0 -- -- 75
2017-12-01 12:00:00 23.4 7 Sudoeste 9 Sudoeste 0 -- -- 75
2017-12-01 11:00:00 23.2 4 Oeste 7 Sur 0 -- -- 75
2017-12-01 10:00:00 24.1 5 Sur 8 Sur 0 -- -- 70
2017-12-01 09:00:00 21.6 6 Este 11 Este 0 -- -- 69
2017-12-01 08:00:00 19.7 6 Este 12 Este 0 -- -- 77
2017-12-01 07:00:00 19.7 5 Este 10 Nordeste 0 -- -- 80
2017-12-01 06:00:00 19.8 5 Este 10 Este 0 -- -- 82
2017-12-01 05:00:00 19.9 5 Este 9 Sudeste 0 -- -- 83
2017-12-01 04:00:00 20.1 0 Calma 9 Este 0 -- -- 81
2017-12-01 03:00:00 19.9 7 Este 9 Este 0 -- -- 75
2017-12-01 02:00:00 20.6 4 Sudeste 10 Este 0 -- -- 85
2017-12-01 01:00:00 20.7 6 Sur 11 Este 0 -- -- 84
2017-12-01 00:00:00 21.3 8 Sudeste 12 Sur 0 -- -- 86
2017-11-30 23:00:00 21.2 6 Sur 13 Sudoeste 0 -- -- 86
2017-11-30 22:00:00 21.9 9 Sur 13 Sudoeste 0 -- -- 84
2017-11-30 21:00:00 22.3 5 Este 12 Sudeste 0 -- -- 73
2017-11-30 20:00:00 22.7 4 Nordeste 13 Norte 0 -- -- 68
2017-11-30 19:00:00 22.7 8 Nordeste 23 Nordeste 0 -- -- 71
2017-11-30 18:00:00 22.9 11 Nordeste 20 Nordeste 0 -- -- 72
2017-11-30 17:00:00 23.3 13 Norte 26 Norte 0 -- -- 70
2017-11-30 16:00:00 23.2 17 Norte 33 Norte 0 -- -- 73
2017-11-30 15:00:00 23.2 24 Norte 32 Norte 0 -- -- 77
2017-11-30 14:00:00 23.6 21 Norte 33 Norte 0 -- -- 73
2017-11-30 13:00:00 23.4 25 Norte 31 Norte 0 -- -- 74
2017-11-30 12:00:00 23.6 20 Norte 27 Norte 0 -- -- 73
2017-11-30 11:00:00 24.1 11 Norte 21 Norte 0 -- -- 69
2017-11-30 10:00:00 24.3 5 Nordeste 16 Este 0 -- -- 66
2017-11-30 09:00:00 22.2 12 Este 19 Este 0 -- -- 71
2017-11-30 08:00:00 20.8 12 Este 19 Nordeste 0 -- -- 76
2017-11-30 07:00:00 21 6 Este 19 Oeste 0 -- -- 76
2017-11-30 06:00:00 22 19 Oeste 33 Oeste 0 -- -- 81
2017-11-30 05:00:00 21.9 24 Oeste 32 Oeste 0 -- -- 81
2017-11-30 04:00:00 22.1 24 Oeste 37 Oeste 0 -- -- 82
2017-11-30 03:00:00 22 24 Oeste 31 Sudoeste 0 -- -- 83
2017-11-30 02:00:00 22.3 21 Oeste 27 Sudoeste 0 -- -- 78
2017-11-30 01:00:00 22.1 16 Sudoeste 28 Sudoeste 0 -- -- 82
2017-11-30 00:00:00 22.1 22 Sudoeste 27 Oeste 0 -- -- 83
2017-11-29 23:00:00 22.1 18 Sudoeste 28 Sudoeste 0 -- -- 80
2017-11-29 22:00:00 22 20 Sudoeste 28 Sudoeste 0 -- -- 83
2017-11-29 21:00:00 22.1 17 Sudoeste 23 Sudoeste 0 -- -- 82
2017-11-29 20:00:00 22.3 20 Oeste 34 Sudoeste 0 -- -- 78
2017-11-29 19:00:00 22.2 22 Sudoeste 28 Sudoeste 0 -- -- 80
2017-11-29 18:00:00 22.3 12 Sudoeste 18 Sudoeste 0 -- -- 82
2017-11-29 17:00:00 22.8 11 Sudoeste 20 Oeste 0 -- -- 81
2017-11-29 16:00:00 23.6 10 Oeste 15 Sudoeste 0 -- -- 77
2017-11-29 15:00:00 23.7 7 Noroeste 12 Noroeste 0 -- -- 74
2017-11-29 14:00:00 23.7 7 Oeste 9 Noroeste 0 -- -- 73
2017-11-29 13:00:00 24.4 5 Sudoeste 12 Noroeste 0 -- -- 69
2017-11-29 12:00:00 23.8 5 Oeste 13 Noroeste 0 -- -- 73
2017-11-29 11:00:00 23.4 9 Noroeste 13 Noroeste 0 -- -- 72
2017-11-29 10:00:00 23.1 10 Norte 13 Norte 0 -- -- 72
2017-11-29 09:00:00 22.8 0 Calma 6 Sur 0 -- -- 63
2017-11-29 08:00:00 21.7 3 Sur 10 Nordeste 0 -- -- 66
2017-11-29 07:00:00 21.5 9 Nordeste 11 Nordeste 0 -- -- 61
2017-11-29 06:00:00 22.5 4 Este 10 Sudeste 0 -- -- 60
2017-11-29 05:00:00 22.9 6 Sudeste 13 Sudoeste 0 -- -- 61
2017-11-29 04:00:00 22.5 6 Sur 24 Sur 0 -- -- 70
2017-11-29 03:00:00 22.3 15 Sur 26 Sur 0 -- -- 71
2017-11-29 02:00:00 22.4 13 Sudoeste 23 Sudoeste 0 -- -- 75
2017-11-29 01:00:00 22.6 14 Sudoeste 31 Sudoeste 0 -- -- 69
2017-11-29 00:00:00 21.6 8 Este 12 Este 0 -- -- 56
2017-11-28 23:00:00 21.8 6 Este 14 Este 0 -- -- 60
2017-11-28 22:00:00 22.1 6 Este 11 Este 0 -- -- 62
2017-11-28 21:00:00 22.4 6 Este 10 Este 0 -- -- 63
2017-11-28 20:00:00 22.4 5 Este 13 Nordeste 0 -- -- 67
2017-11-28 19:00:00 22.6 8 Este 13 Nordeste 0 -- -- 69
2017-11-28 18:00:00 23 8 Nordeste 16 Norte 0 -- -- 69
2017-11-28 17:00:00 23.6 11 Nordeste 18 Norte 0 -- -- 61
2017-11-28 16:00:00 23.5 10 Nordeste 18 Norte 0 -- -- 68
2017-11-28 15:00:00 23.6 10 Norte 15 Norte 0 -- -- 69
2017-11-28 14:00:00 23.7 7 Oeste 14 Noroeste 0 -- -- 74
2017-11-28 13:00:00 23.1 9 Noroeste 12 Noroeste 0 -- -- 71
2017-11-28 12:00:00 23.7 0 Calma 7 Sudoeste 0 -- -- 60
2017-11-28 11:00:00 22.9 4 Sudoeste 8 Sudoeste 0 -- -- 65
2017-11-28 10:00:00 22.7 6 Oeste 8 Oeste 0 -- -- 66
2017-11-28 09:00:00 22.2 0 Calma 5 Este 0 -- -- 46
2017-11-28 08:00:00 21 0 Calma 5 Este 0 -- -- 47
2017-11-28 07:00:00 20.7 3 Este 5 Este 0 -- -- 44
2017-11-28 06:00:00 20.6 0 Calma 6 Este 0 -- -- 41
2017-11-28 05:00:00 21.2 3 Este 13 Este 0 -- -- 37
2017-11-28 04:00:00 21.1 4 Este 9 Este 0 -- -- 36
2017-11-28 03:00:00 21.7 5 Nordeste 14 Este 0 -- -- 29
2017-11-28 02:00:00 22.2 7 Este 12 Nordeste 0 -- -- 26
2017-11-28 01:00:00 23.2 9 Este 14 Este 0 -- -- 26
2017-11-28 00:00:00 23.1 6 Este 14 Este 0 -- -- 27
2017-11-27 23:00:00 24.4 11 Este 15 Este 0 -- -- 28
2017-11-27 22:00:00 23.6 9 Este 14 Nordeste 0 -- -- 34
2017-11-27 21:00:00 23.1 5 Nordeste 10 Este 0 -- -- 41
2017-11-27 20:00:00 23.5 3 Sudeste 12 Este 0 -- -- 50
2017-11-27 19:00:00 24.1 4 Este 11 Norte 0 -- -- 45
2017-11-27 18:00:00 23.5 9 Norte 16 Noroeste 0 -- -- 65
2017-11-27 17:00:00 25.2 12 Norte 17 Norte 0 -- -- 50
2017-11-27 16:00:00 25.7 13 Norte 25 Noroeste 0 -- -- 53
2017-11-27 15:00:00 25.4 16 Noroeste 21 Norte 0 -- -- 57
2017-11-27 14:00:00 25.7 8 Norte 20 Norte 0 -- -- 51
2017-11-27 13:00:00 24.9 3 Sudeste 8 Oeste 0 -- -- 54
2017-11-27 12:00:00 24.2 0 Calma 8 Norte 0 -- -- 61
2017-11-27 11:00:00 23.7 2 Norte 7 Noroeste 0 -- -- 54
2017-11-27 10:00:00 26.3 2 Sudoeste 6 Sur 0 -- -- 44
2017-11-27 09:00:00 23.5 4 Este 8 Nordeste 0 -- -- 46
2017-11-27 08:00:00 21.4 4 Nordeste 13 Este 0 -- -- 44
2017-11-27 07:00:00 21.2 3 Sudeste 13 Este 0 -- -- 59
2017-11-27 06:00:00 21.7 6 Este 9 Este 0 -- -- 43
2017-11-27 05:00:00 21.9 7 Este 12 Este 0 -- -- 47
2017-11-27 04:00:00 21.8 5 Este 12 Este 0 -- -- 55
2017-11-27 03:00:00 21.5 3 Sudeste 14 Nordeste 0 -- -- 67
2017-11-27 02:00:00 21.3 2 Norte 11 Sur 0 -- -- 72
2017-11-27 01:00:00 21.7 3 Sudeste 10 Nordeste 0 -- -- 74
2017-11-27 00:00:00 21.8 5 Nordeste 10 Este 0 -- -- 73
2017-11-26 23:00:00 22.4 4 Sudoeste 9 Sudeste 0 -- -- 83
2017-11-26 22:00:00 22.4 3 Sur 8 Este 0 -- -- 82
2017-11-26 21:00:00 22.6 0 Calma 7 Sudeste 0 -- -- 81
2017-11-26 20:00:00 23.1 0 Calma 5 Sudoeste 0 -- -- 76
2017-11-26 19:00:00 23 3 Sudeste 10 Sudeste 0 -- -- 74
2017-11-26 18:00:00 23.5 8 Sur 13 Sudeste 0 -- -- 75
2017-11-26 17:00:00 24 8 Sur 12 Sur 0 -- -- 73
2017-11-26 16:00:00 23.8 11 Sudeste 15 Sudeste 0 -- -- 73
2017-11-26 15:00:00 25.6 5 Sudoeste 11 Sudoeste 0 -- -- 65
2017-11-26 14:00:00 25.7 7 Sudeste 13 Sudeste 0 -- -- 63
2017-11-26 13:00:00 26.9 4 Este 22 Norte 0 -- -- 50
2017-11-26 12:00:00 25.2 11 Norte 19 Norte 0 -- -- 57
2017-11-26 11:00:00 24.8 5 Norte 10 Sudeste 0 -- -- 64
2017-11-26 10:00:00 24.7 2 Sudoeste 8 Oeste 0 -- -- 58
2017-11-26 09:00:00 24.2 3 Sur 10 Este 0 -- -- 55
2017-11-26 08:00:00 23.1 6 Nordeste 14 Este 0 -- -- 50
2017-11-26 07:00:00 23.4 5 Nordeste 14 Este 0 -- -- 47
2017-11-26 06:00:00 23.3 5 Este 10 Este 0 -- -- 45
2017-11-26 05:00:00 23.2 0 Calma 12 Este 0 -- -- 57
2017-11-26 04:00:00 24 6 Nordeste 18 Este 0 -- -- 43
2017-11-26 03:00:00 24.4 8 Este 16 Este 0 -- -- 44
2017-11-26 02:00:00 23.6 5 Este 10 Sudeste 0 -- -- 50
2017-11-26 01:00:00 24 7 Sur 18 Noroeste 0 -- -- 56
2017-11-26 00:00:00 24.2 10 Nordeste 19 Este 0 -- -- 45
2017-11-25 23:00:00 22.7 5 Este 9 Este 0 -- -- 60
2017-11-25 22:00:00 22.6 3 Norte 10 Norte 0 -- -- 76
2017-11-25 21:00:00 22.4 4 Nordeste 7 Este 0 -- -- 85
2017-11-25 20:00:00 22.6 4 Sudeste 10 Sur 0 -- -- 79
2017-11-25 19:00:00 23 2 Sur 11 Sur 0 -- -- 75
2017-11-25 18:00:00 23.9 8 Sudoeste 17 Sur 0 -- -- 67
2017-11-25 17:00:00 23.6 3 Noroeste 19 Noroeste 0 -- -- 68
2017-11-25 16:00:00 23.3 14 Norte 18 Norte 0 -- -- 77
2017-11-25 15:00:00 24.7 5 Sur 17 Noroeste 0 -- -- 64
2017-11-25 14:00:00 24.5 13 Norte 28 Norte 0 -- -- 65
2017-11-25 13:00:00 25.3 19 Norte 30 Norte 0 -- -- 55
2017-11-25 12:00:00 26.8 11 Norte 18 Norte 0 -- -- 42
2017-11-25 11:00:00 25.4 5 Norte 23 Norte 0 -- -- 51
2017-11-25 10:00:00 23.5 16 Norte 28 Noroeste 0 -- -- 71
2017-11-25 09:00:00 23.1 23 Norte 42 Sur 0 -- -- 76
2017-11-25 08:00:00 21.8 5 Norte 15 Noroeste 0 -- -- 72
2017-11-25 07:00:00 22.7 6 Noroeste 11 Noroeste 0 -- -- 75
2017-11-25 06:00:00 22.9 3 Norte 17 Este 0 -- -- 50
2017-11-25 05:00:00 23 10 Sur 23 Sudoeste 0 -- -- 53
2017-11-25 04:00:00 23 9 Sur 22 Este 0 -- -- 59
2017-11-25 03:00:00 22.2 7 Nordeste 14 Este 0 -- -- 50
2017-11-25 02:00:00 22.3 4 Este 9 Este 0 -- -- 60
2017-11-25 01:00:00 22.2 6 Este 13 Norte 0 -- -- 62
2017-11-25 00:00:00 22.3 8 Nordeste 12 Norte 0 -- -- 58
2017-11-24 23:00:00 22.1 4 Norte 11 Sudeste 0 -- -- 72
2017-11-24 22:00:00 22.7 6 Sudoeste 21 Sudeste 0 -- -- 76
2017-11-24 21:00:00 21.8 4 Sur 8 Sur 0 -- -- 81
2017-11-24 20:00:00 21.8 0 Calma 9 Noroeste 0 -- -- 81
2017-11-24 19:00:00 22 4 Noroeste 18 Norte 0 -- -- 81
2017-11-24 18:00:00 22 11 Norte 19 Norte 0 -- -- 81
2017-11-24 17:00:00 22.5 8 Noroeste 13 Noroeste 0 -- -- 79
2017-11-24 16:00:00 22.7 11 Noroeste 13 Noroeste 0 -- -- 76
2017-11-24 15:00:00 22.5 9 Norte 13 Noroeste 0 -- -- 77
2017-11-24 14:00:00 23.1 6 Norte 10 Noroeste 0 -- -- 71
2017-11-24 13:00:00 23.9 8 Sur 12 Sur 0 -- -- 61
2017-11-24 12:00:00 23.4 4 Oeste 8 Noroeste 0 -- -- 63
2017-11-24 11:00:00 22.4 5 Noroeste 8 Norte 0 -- -- 67
2017-11-24 10:00:00 22.5 4 Norte 10 Este 0 -- -- 66
2017-11-24 09:00:00 21.3 6 Este 10 Este 0 -- -- 52
2017-11-24 08:00:00 20.7 3 Este 8 Sur 0 -- -- 58
2017-11-24 07:00:00 20.5 2 Sudeste 12 Este 0 -- -- 52
2017-11-24 06:00:00 20.9 9 Este 17 Este 0 -- -- 50
2017-11-24 05:00:00 20.8 9 Este 18 Este 0 -- -- 48
2017-11-24 04:00:00 20.9 10 Este 17 Este 0 -- -- 49
2017-11-24 03:00:00 21 12 Este 16 Este 0 -- -- 47
2017-11-24 02:00:00 20.6 9 Nordeste 17 Este 0 -- -- 32
2017-11-24 01:00:00 20.1 8 Este 14 Nordeste 0 -- -- 48
2017-11-24 00:00:00 20.7 7 Este 13 Este 0 -- -- 41
2017-11-23 23:00:00 21 2 Este 15 Este 0 -- -- 43
2017-11-23 22:00:00 20.6 10 Este 15 Este 0 -- -- 54
2017-11-23 21:00:00 20.8 3 Este 14 Este 0 -- -- 63
2017-11-23 20:00:00 21.1 5 Nordeste 13 Sudeste 0 -- -- 66
2017-11-23 19:00:00 21.5 10 Este 17 Este 0 -- -- 73
2017-11-23 18:00:00 22.2 5 Norte 8 Norte 0 -- -- 70
2017-11-23 17:00:00 23 5 Noroeste 8 Sur 0 -- -- 68
2017-11-23 16:00:00 23.7 6 Sudoeste 12 Sudoeste 0 -- -- 65
2017-11-23 15:00:00 23.4 6 Oeste 9 Oeste 0 -- -- 65
2017-11-23 14:00:00 23.8 4 Sudoeste 9 Sudoeste 0 -- -- 60
2017-11-23 13:00:00 23 8 Sudoeste 11 Sur 0 -- -- 67
2017-11-23 12:00:00 23 6 Sudoeste 9 Sur 0 -- -- 66
2017-11-23 11:00:00 22.8 4 Oeste 6 Sudoeste 0 -- -- 64
2017-11-23 10:00:00 23.2 3 Noroeste 9 Este 0 -- -- 62
2017-11-23 09:00:00 20.8 7 Este 10 Este 0 -- -- 44
2017-11-23 08:00:00 18.9 8 Este 14 Este 0 -- -- 54
2017-11-23 07:00:00 18.8 6 Este 12 Sudeste 0 -- -- 61
2017-11-23 06:00:00 19.7 6 Sur 10 Sur 0 -- -- 67
2017-11-23 05:00:00 19 3 Sudeste 11 Este 0 -- -- 56
2017-11-23 04:00:00 19.1 5 Este 9 Este 0 -- -- 47
2017-11-23 03:00:00 19.3 3 Sudeste 12 Este 0 -- -- 45
2017-11-23 02:00:00 19.6 6 Este 11 Este 0 -- -- 41
2017-11-23 01:00:00 20 6 Este 10 Este 0 -- -- 36
2017-11-23 00:00:00 20.1 4 Este 8 Este 0 -- -- 44
2017-11-22 23:00:00 21.3 8 Este 13 Este 0 -- -- 35
2017-11-22 22:00:00 20.8 5 Nordeste 13 Este 0 -- -- 43
2017-11-22 21:00:00 21.1 9 Este 15 Este 0 -- -- 51
2017-11-22 20:00:00 21.5 2 Nordeste 7 Nordeste 0 -- -- 57
2017-11-22 19:00:00 22.5 5 Nordeste 21 Noroeste 0 -- -- 58
2017-11-22 18:00:00 22.9 14 Norte 22 Noroeste 0 -- -- 66
2017-11-22 17:00:00 23.7 18 Noroeste 23 Norte 0 -- -- 56
2017-11-22 16:00:00 24.8 10 Norte 18 Noroeste 0 -- -- 49
2017-11-22 15:00:00 24.5 13 Norte 19 Norte 0 -- -- 50
2017-11-22 14:00:00 24.9 16 Norte 22 Norte 0 -- -- 45
2017-11-22 13:00:00 24.3 16 Norte 19 Norte 0 -- -- 51
2017-11-22 12:00:00 23.8 13 Norte 16 Noroeste 0 -- -- 56
2017-11-22 11:00:00 24.3 2 Noroeste 5 Sudoeste 0 -- -- 50
2017-11-22 10:00:00 25.6 4 Sur 8 Sur 0 -- -- 30
2017-11-22 09:00:00 23.1 4 Este 13 Este 0 -- -- 27
2017-11-22 08:00:00 20.7 5 Este 21 Este 0 -- -- 30
2017-11-22 07:00:00 20.7 9 Este 13 Este 0 -- -- 37
2017-11-22 06:00:00 20.2 9 Este 13 Nordeste 0 -- -- 37
2017-11-22 05:00:00 20 9 Este 14 Este 0 -- -- 47
2017-11-22 04:00:00 19.8 5 Nordeste 8 Este 0 -- -- 33
2017-11-22 03:00:00 21.7 4 Sudeste 17 Este 0 -- -- 49
2017-11-22 02:00:00 22 13 Este 20 Este 0 -- -- 39
2017-11-22 01:00:00 20.8 6 Este 10 Este 0 -- -- 52
2017-11-22 00:00:00 21.7 10 Este 14 Este 0 -- -- 34
2017-11-21 23:00:00 21.1 6 Nordeste 11 Este 0 -- -- 48
2017-11-21 22:00:00 22.2 5 Este 14 Norte 0 -- -- 54
2017-11-21 21:00:00 22.4 4 Este 9 Sudeste 0 -- -- 55
2017-11-21 20:00:00 22.7 0 Calma -- -- 0 -- -- 55
2017-11-21 19:00:00 22.8 0 Calma 10 Norte 0 -- -- 60
2017-11-21 18:00:00 23.1 5 Noroeste 12 Noroeste 0 -- -- 60
2017-11-21 17:00:00 23.3 4 Sudeste 13 Noroeste 0 -- -- 62
2017-11-21 16:00:00 23.4 12 Noroeste 26 Norte 0 -- -- 68
2017-11-21 15:00:00 23.8 19 Norte 23 Norte 0 -- -- 64
2017-11-21 14:00:00 24 11 Norte 14 Norte 0 -- -- 59
2017-11-21 13:00:00 25.4 3 Noroeste 9 Sur 0 -- -- 48
2017-11-21 12:00:00 24.5 6 Noroeste 10 Norte 0 -- -- 53
2017-11-21 11:00:00 24.3 6 Norte 8 Norte 0 -- -- 52
2017-11-21 10:00:00 23.9 5 Noroeste 9 Este 0 -- -- 45
2017-11-21 09:00:00 22.6 7 Este 13 Nordeste 0 -- -- 29
2017-11-21 08:00:00 21.5 6 Este 15 Este 0 -- -- 25
2017-11-21 07:00:00 21.7 5 Sudeste 9 Sudeste 0 -- -- 44
2017-11-21 06:00:00 20.9 0 Calma 10 Sudeste 0 -- -- 31
2017-11-21 05:00:00 20.8 3 Este 11 Este 0 -- -- 52
2017-11-21 04:00:00 20.6 6 Este 10 Este 0 -- -- 27
2017-11-21 03:00:00 20.3 4 Sudeste 8 Sur 0 -- -- 40
2017-11-21 02:00:00 21.2 3 Sudeste 12 Este 0 -- -- 39
2017-11-21 01:00:00 21.3 6 Este 13 Este 0 -- -- 37
2017-11-21 00:00:00 20.9 2 Este 13 Este 0 -- -- 46
2017-11-20 23:00:00 21.9 6 Este 17 Sudeste 0 -- -- 41
2017-11-20 22:00:00 22.1 9 Este 18 Este 0 -- -- 44
2017-11-20 21:00:00 22.4 9 Este 14 Este 0 -- -- 47
2017-11-20 20:00:00 23.4 3 Sur 12 Nordeste 0 -- -- 49
2017-11-20 19:00:00 23.8 5 Nordeste 12 Norte 0 -- -- 47
2017-11-20 18:00:00 24 9 Norte 14 Norte 0 -- -- 55
2017-11-20 17:00:00 25.1 10 Norte 17 Norte 0 -- -- 50
2017-11-20 16:00:00 24.9 14 Norte 18 Norte 0 -- -- 50
2017-11-20 15:00:00 25.1 7 Norte 12 Norte 0 -- -- 54
2017-11-20 14:00:00 24.9 5 Sudoeste 11 Sur 0 -- -- 57
2017-11-20 13:00:00 24.4 6 Sur 13 Sudoeste 0 -- -- 64
2017-11-20 12:00:00 23.4 4 Oeste 13 Sudoeste 0 -- -- 65
2017-11-20 11:00:00 23.6 8 Sur 13 Sur 0 -- -- 58
2017-11-20 10:00:00 23.5 6 Sudoeste 12 Sudeste 0 -- -- 59
2017-11-20 09:00:00 22.7 4 Sudeste 11 Este 0 -- -- 56
2017-11-20 08:00:00 19.3 6 Este 18 Sudeste 0 -- -- 59
2017-11-20 07:00:00 20 12 Este 17 Este 0 -- -- 61
2017-11-20 06:00:00 20.2 12 Este 21 Este 0 -- -- 57
2017-11-20 05:00:00 20 13 Este 18 Sudeste 0 -- -- 62
2017-11-20 04:00:00 20.1 9 Sudeste 20 Este 0 -- -- 62
2017-11-20 03:00:00 20.2 7 Sudeste 15 Este 0 -- -- 63
2017-11-20 02:00:00 19.6 9 Este 13 Este 0 -- -- 65
2017-11-20 01:00:00 20.1 3 Sudeste 9 Sudeste 0 -- -- 71
2017-11-20 00:00:00 20.5 8 Sur 27 Este 0 -- -- 71
2017-11-19 23:00:00 20.5 10 Este 24 Este 0 -- -- 67
2017-11-19 22:00:00 20.9 10 Nordeste 45 Nordeste 0 -- -- 64
2017-11-19 21:00:00 20.9 20 Nordeste 43 Este 0 -- -- 64
2017-11-19 20:00:00 20.7 27 Nordeste 49 Nordeste 0 -- -- 67
2017-11-19 19:00:00 20.6 25 Nordeste 44 Nordeste 0 -- -- 72
2017-11-19 18:00:00 20.9 26 Nordeste 46 Nordeste 0 -- -- 69
2017-11-19 17:00:00 21.4 25 Nordeste 44 Nordeste 0 -- -- 66
2017-11-19 16:00:00 22.1 27 Nordeste 43 Nordeste 0 -- -- 64
2017-11-19 15:00:00 22.4 23 Nordeste 42 Nordeste 0 -- -- 63
2017-11-19 14:00:00 22.3 23 Nordeste 40 Nordeste 0 -- -- 62
2017-11-19 13:00:00 21.9 23 Nordeste 36 Nordeste 0 -- -- 64
2017-11-19 12:00:00 22.2 14 Nordeste 30 Nordeste 0 -- -- 64
2017-11-19 11:00:00 23.1 8 Sur 22 Este 0 -- -- 62
2017-11-19 10:00:00 21.9 7 Sudeste 20 Este 0 -- -- 61
2017-11-19 09:00:00 20.7 6 Este 15 Este 0 -- -- 53
2017-11-19 08:00:00 19.1 11 Este 18 Este 0 -- -- 51
2017-11-19 07:00:00 20 7 Sudeste 30 Este 0 -- -- 64
2017-11-19 06:00:00 19.9 15 Nordeste 27 Nordeste 0 -- -- 69
2017-11-19 05:00:00 18.8 7 Este 19 Sudeste 0 -- -- 70
2017-11-19 04:00:00 19 12 Este 17 Este 0 -- -- 60
2017-11-19 03:00:00 18.8 10 Este 16 Este 0 -- -- 69
2017-11-19 02:00:00 18.9 4 Este 10 Nordeste 0 -- -- 73
2017-11-19 01:00:00 18.9 4 Este 12 Este 0 -- -- 72
2017-11-19 00:00:00 19.5 5 Este 9 Sudeste 0 -- -- 70
2017-11-18 23:00:00 20.4 12 Este 30 Nordeste 0 -- -- 65
2017-11-18 22:00:00 20.3 18 Nordeste 29 Norte 0 -- -- 71
2017-11-18 21:00:00 20.2 17 Nordeste 30 Nordeste 0 -- -- 71
2017-11-18 20:00:00 20.4 17 Nordeste 30 Nordeste 0 -- -- 72
2017-11-18 19:00:00 20.9 16 Nordeste 28 Nordeste 0 -- -- 71
2017-11-18 18:00:00 21.1 14 Nordeste 27 Nordeste 0 -- -- 70
2017-11-18 17:00:00 21.6 13 Nordeste 23 Norte 0 -- -- 67
2017-11-18 16:00:00 21.9 12 Norte 26 Norte 0 -- -- 69
2017-11-18 15:00:00 21.8 21 Norte 26 Norte 0 -- -- 71
2017-11-18 14:00:00 22.9 7 Nordeste 19 Norte 0 -- -- 63
2017-11-18 13:00:00 23.1 7 Este 17 Este 0 -- -- 64
2017-11-18 12:00:00 22.3 5 Oeste 10 Noroeste 0 -- -- 67
2017-11-18 11:00:00 22.5 5 Noroeste 8 Noroeste 0 -- -- 68
2017-11-18 10:00:00 22 3 Norte 6 Norte 0 -- -- 69
2017-11-18 09:00:00 20.2 4 Nordeste 13 Este 0 -- -- 73
2017-11-18 08:00:00 19.3 10 Este 17 Este 0 -- -- 76
2017-11-18 07:00:00 19 11 Este 15 Este 0 -- -- 77
2017-11-18 06:00:00 18.8 8 Este 14 Este 0 -- -- 78
2017-11-18 05:00:00 18.9 9 Este 14 Este 0 -- -- 78
2017-11-18 04:00:00 19.2 8 Este 16 Este 0 -- -- 77
2017-11-18 03:00:00 19.7 11 Este 15 Este 0 -- -- 73
2017-11-18 02:00:00 20 10 Sudeste 14 Sudeste 0 -- -- 72
2017-11-18 01:00:00 20.3 6 Este 12 Este 0 -- -- 73
2017-11-18 00:00:00 20.4 8 Este 38 Sudoeste 0 -- -- 72
2017-11-17 23:00:00 21.1 21 Sudoeste 41 Sudoeste 0 -- -- 79
2017-11-17 22:00:00 21.6 27 Sudoeste 74 Este 0 -- -- 77
2017-11-17 21:00:00 20.9 19 Nordeste 48 Este 0 -- -- 66
2017-11-17 20:00:00 20.7 15 Nordeste 29 Este 0 -- -- 70
2017-11-17 19:00:00 20.7 16 Este 30 Nordeste 0 -- -- 70
2017-11-17 18:00:00 21 15 Nordeste 32 Nordeste 0 -- -- 68
2017-11-17 17:00:00 21.8 15 Nordeste 35 Nordeste 0 -- -- 65
2017-11-17 16:00:00 22.4 19 Nordeste 35 Nordeste 0 -- -- 63
2017-11-17 15:00:00 22.8 14 Nordeste 31 Norte 0 -- -- 62
2017-11-17 14:00:00 23 10 Este 23 Norte 0 -- -- 63
2017-11-17 13:00:00 23.3 11 Sur 15 Sur 0 -- -- 64
2017-11-17 12:00:00 21.9 6 Oeste 10 Oeste 0 -- -- 71
2017-11-17 11:00:00 21.6 4 Norte 8 Norte 0 -- -- 72
2017-11-17 10:00:00 21.3 5 Sudeste 10 Sur 0 -- -- 70
2017-11-17 09:00:00 21.3 5 Sur 11 Este 0 -- -- 72
2017-11-17 08:00:00 18.3 9 Este 13 Este 0 -- -- 77
2017-11-17 07:00:00 18.2 4 Este 15 Este 0 -- -- 76
2017-11-17 06:00:00 18 9 Este 12 Este 0 -- -- 75
2017-11-17 05:00:00 18 7 Este 17 Este 0 -- -- 71
2017-11-17 04:00:00 17.8 7 Este 16 Este 0 -- -- 70
2017-11-17 03:00:00 18.2 9 Este 14 Este 0 -- -- 70
2017-11-17 02:00:00 18.7 8 Este 15 Este 0 -- -- 68
2017-11-17 01:00:00 19 8 Este 16 Este 0 -- -- 65
2017-11-17 00:00:00 19.3 9 Este 17 Sudeste 0 -- -- 67
2017-11-16 23:00:00 19.4 11 Este 16 Este 0 -- -- 66
2017-11-16 22:00:00 19.6 12 Este 19 Este 0 -- -- 67
2017-11-16 21:00:00 19.8 10 Sudeste 19 Sudeste 0 -- -- 68
2017-11-16 20:00:00 19.8 12 Sudeste 16 Este 0 -- -- 68
2017-11-16 19:00:00 20.2 10 Este 23 Nordeste 0 -- -- 67
2017-11-16 18:00:00 20.8 12 Nordeste 26 Este 0 -- -- 65
2017-11-16 17:00:00 22.2 15 Nordeste 25 Este 0 -- -- 60
2017-11-16 16:00:00 22.8 11 Norte 27 Norte 0 -- -- 58
2017-11-16 15:00:00 23.7 9 Sudeste 20 Este 0 -- -- 57
2017-11-16 14:00:00 23 13 Este 31 Este 0 -- -- 57
2017-11-16 13:00:00 22.5 16 Nordeste 32 Nordeste 0 -- -- 58
2017-11-16 12:00:00 22.4 13 Nordeste 27 Nordeste 0 -- -- 59
2017-11-16 11:00:00 22.1 12 Norte 22 Norte 0 -- -- 59
2017-11-16 10:00:00 21.2 12 Nordeste 23 Nordeste 0 -- -- 61
2017-11-16 09:00:00 20.3 6 Este 13 Este 0 -- -- 57
2017-11-16 08:00:00 18.1 11 Este 21 Este 0 -- -- 61
2017-11-16 07:00:00 18 10 Este 18 Este 0 -- -- 62
2017-11-16 06:00:00 18.1 8 Este 18 Este 0 -- -- 66
2017-11-16 05:00:00 18.5 11 Este 20 Este 0 -- -- 63
2017-11-16 04:00:00 18.4 9 Este 15 Este 0 -- -- 59
2017-11-16 03:00:00 18.2 9 Este 19 Este 0 -- -- 57
2017-11-16 02:00:00 18.2 13 Este 17 Este 0 -- -- 55
2017-11-16 01:00:00 18.4 9 Este 20 Este 0 -- -- 59
2017-11-16 00:00:00 18.8 7 Este 24 Nordeste 0 -- -- 63
2017-11-15 23:00:00 19.5 13 Nordeste 27 Nordeste 0 -- -- 66
2017-11-15 22:00:00 19.8 15 Nordeste 32 Nordeste 0 -- -- 66
2017-11-15 21:00:00 20.3 21 Norte 32 Nordeste 0 -- -- 64
2017-11-15 20:00:00 20.3 10 Nordeste 19 Sudeste 0 -- -- 61
2017-11-15 19:00:00 20.6 12 Nordeste 26 Nordeste 0 -- -- 60
2017-11-15 18:00:00 21.1 13 Nordeste 30 Norte 0 -- -- 61
2017-11-15 17:00:00 22.1 18 Norte 30 Nordeste 0 -- -- 59
2017-11-15 16:00:00 22.9 15 Nordeste 35 Norte 0 -- -- 57
2017-11-15 15:00:00 22.5 25 Norte 34 Norte 0 -- -- 60
2017-11-15 14:00:00 22.7 20 Norte 39 Nordeste 0 -- -- 56
2017-11-15 13:00:00 22.7 21 Norte 37 Norte 0 -- -- 53
2017-11-15 12:00:00 22.3 21 Norte 39 Norte 0 -- -- 54
2017-11-15 11:00:00 22.1 18 Nordeste 33 Nordeste 0 -- -- 59
2017-11-15 10:00:00 21.6 18 Nordeste 32 Nordeste 0 -- -- 63
2017-11-15 09:00:00 20.8 10 Nordeste 18 Nordeste 0 -- -- 66
2017-11-15 08:00:00 19.5 11 Nordeste 19 Nordeste 0 -- -- 66
2017-11-15 07:00:00 19.3 12 Nordeste 18 Nordeste 0 -- -- 67
2017-11-15 06:00:00 19.3 8 Nordeste 15 Nordeste 0 -- -- 67
2017-11-15 05:00:00 19.3 8 Nordeste 19 Este 0 -- -- 66
2017-11-15 04:00:00 19.6 11 Nordeste 24 Nordeste 0 -- -- 66
2017-11-15 03:00:00 19.4 9 Nordeste 22 Este 0 -- -- 63
2017-11-15 02:00:00 19.6 8 Nordeste 15 Nordeste 0 -- -- 64
2017-11-15 01:00:00 19.5 11 Nordeste 30 Nordeste 0 -- -- 66
2017-11-15 00:00:00 20.2 20 Nordeste 34 Nordeste 0 -- -- 66